createdAt,value
2018-06-30T00:00:47.751Z,8.30
2018-06-30T00:03:14.577Z,7.15
2018-06-30T00:05:46.171Z,6.53
2018-06-30T00:08:12.965Z,6.65
2018-06-30T00:10:39.812Z,10.32
2018-06-30T00:13:06.608Z,7.40
2018-06-30T00:15:33.398Z,13.58
2018-06-30T00:18:00.160Z,7.20
2018-06-30T00:20:26.926Z,7.83
2018-06-30T00:22:54.208Z,10.10
2018-06-30T00:25:21.184Z,7.37
2018-06-30T00:27:47.946Z,6.87
2018-06-30T00:30:14.750Z,8.00
2018-06-30T00:32:41.547Z,10.60
2018-06-30T00:35:08.242Z,10.15
2018-06-30T00:37:35.022Z,6.45
2018-06-30T00:40:01.838Z,6.70
2018-06-30T00:42:28.694Z,6.45
2018-06-30T00:44:55.550Z,6.15
2018-06-30T00:47:22.247Z,9.38
2018-06-30T00:49:49.023Z,10.40
2018-06-30T00:52:15.742Z,7.45
2018-06-30T00:54:42.533Z,8.45
2018-06-30T00:57:09.291Z,10.30
2018-06-30T00:59:35.998Z,9.53
2018-06-30T01:02:02.727Z,11.50
2018-06-30T01:04:29.387Z,8.28
2018-06-30T01:06:56.067Z,9.25
2018-06-30T01:09:22.753Z,6.50
2018-06-30T01:11:49.514Z,7.75
2018-06-30T01:14:16.237Z,11.53
2018-06-30T01:16:42.901Z,8.73
2018-06-30T01:19:09.636Z,7.72
2018-06-30T01:21:36.652Z,6.80
2018-06-30T01:24:03.402Z,9.78
2018-06-30T01:26:30.107Z,6.92
2018-06-30T01:28:56.858Z,8.63
2018-06-30T01:31:23.586Z,10.60
2018-06-30T01:33:50.390Z,7.92
2018-06-30T01:36:17.158Z,7.83
2018-06-30T01:38:43.892Z,7.53
2018-06-30T01:41:10.856Z,7.15
2018-06-30T01:43:37.672Z,7.30
2018-06-30T01:46:04.459Z,8.85
2018-06-30T01:48:31.188Z,8.33
2018-06-30T01:50:57.922Z,9.28
2018-06-30T01:53:24.720Z,9.10
2018-06-30T01:55:51.460Z,6.33
2018-06-30T01:58:18.182Z,8.25
2018-06-30T02:00:44.952Z,7.78
2018-06-30T02:03:11.701Z,9.90
2018-06-30T02:05:38.420Z,11.22
2018-06-30T02:08:05.232Z,11.00
2018-06-30T02:10:31.978Z,8.90
2018-06-30T02:12:58.760Z,7.78
2018-06-30T02:15:25.530Z,9.35
2018-06-30T02:17:52.276Z,6.72
2018-06-30T02:20:19.126Z,8.63
2018-06-30T02:22:46.009Z,8.40
2018-06-30T02:25:12.827Z,11.60
2018-06-30T02:27:39.550Z,8.43
2018-06-30T02:30:06.639Z,8.73
2018-06-30T02:32:33.424Z,8.83
2018-06-30T02:35:00.361Z,13.98
2018-06-30T02:37:27.053Z,12.35
2018-06-30T02:39:53.815Z,9.50
2018-06-30T02:42:20.539Z,7.62
2018-06-30T02:44:47.331Z,14.87
2018-06-30T02:47:14.087Z,13.10
2018-06-30T02:49:40.752Z,14.45
2018-06-30T02:52:07.567Z,8.55
2018-06-30T02:54:34.419Z,10.82
2018-06-30T02:57:01.101Z,8.35
2018-06-30T02:59:27.842Z,10.78
2018-06-30T03:01:54.669Z,8.73
2018-06-30T03:04:21.754Z,11.12
2018-06-30T03:06:48.713Z,8.53
2018-06-30T03:09:15.475Z,7.85
2018-06-30T03:11:42.457Z,11.30
2018-06-30T03:14:09.231Z,10.82
2018-06-30T03:16:35.933Z,10.38
2018-06-30T03:19:02.705Z,14.38
2018-06-30T03:21:29.439Z,10.60
2018-06-30T03:23:56.183Z,7.75
2018-06-30T03:26:22.965Z,11.53
2018-06-30T03:28:49.726Z,8.18
2018-06-30T03:31:16.707Z,15.35
2018-06-30T03:33:43.566Z,11.05
2018-06-30T03:36:10.416Z,9.13
2018-06-30T03:38:37.114Z,11.28
2018-06-30T03:41:03.888Z,11.55
2018-06-30T03:43:30.574Z,8.98
2018-06-30T03:45:57.252Z,13.80
2018-06-30T03:48:24.000Z,10.32
2018-06-30T03:50:50.708Z,9.60
2018-06-30T03:53:17.494Z,9.55
2018-06-30T03:55:44.306Z,14.10
2018-06-30T03:58:10.998Z,11.80
2018-06-30T04:00:37.628Z,8.83
2018-06-30T04:03:04.300Z,10.82
2018-06-30T04:05:31.046Z,15.80
2018-06-30T04:07:57.780Z,10.30
2018-06-30T04:10:24.590Z,9.10
2018-06-30T04:12:51.327Z,11.80
2018-06-30T04:15:18.008Z,11.55
2018-06-30T04:17:44.780Z,10.03
2018-06-30T04:20:11.688Z,10.60
2018-06-30T04:22:38.461Z,9.68
2018-06-30T04:25:05.158Z,9.70
2018-06-30T04:27:31.853Z,11.43
2018-06-30T04:29:58.537Z,11.20
2018-06-30T04:32:25.588Z,12.35
2018-06-30T04:34:52.323Z,9.78
2018-06-30T04:37:19.032Z,13.93
2018-06-30T04:39:45.729Z,13.03
2018-06-30T04:42:12.658Z,10.10
2018-06-30T04:44:39.461Z,12.18
2018-06-30T04:47:06.275Z,11.55
2018-06-30T04:49:33.046Z,10.45
2018-06-30T04:51:59.735Z,10.80
2018-06-30T04:54:26.494Z,13.45
2018-06-30T04:56:53.304Z,10.75
2018-06-30T04:59:20.100Z,11.93
2018-06-30T05:01:46.834Z,11.48
2018-06-30T05:04:13.709Z,11.33
2018-06-30T05:06:40.485Z,10.25
2018-06-30T05:09:07.896Z,9.40
2018-06-30T05:11:34.740Z,10.00
2018-06-30T05:14:01.455Z,8.63
2018-06-30T05:16:28.416Z,10.68
2018-06-30T05:18:55.142Z,14.90
2018-06-30T05:21:21.935Z,11.53
2018-06-30T05:23:48.811Z,9.93
2018-06-30T05:26:15.726Z,12.45
2018-06-30T05:28:42.527Z,8.13
2018-06-30T05:31:09.304Z,10.82
2018-06-30T05:33:40.028Z,13.32
2018-06-30T05:36:06.794Z,11.20
2018-06-30T05:38:33.628Z,13.55
2018-06-30T05:41:00.686Z,10.75
2018-06-30T05:43:27.492Z,10.40
2018-06-30T05:45:54.236Z,10.40
2018-06-30T05:48:21.008Z,9.40
2018-06-30T05:50:47.876Z,9.75
2018-06-30T05:53:14.878Z,9.28
2018-06-30T05:55:41.642Z,11.75
2018-06-30T05:58:08.407Z,9.58
2018-06-30T06:00:35.190Z,11.65
2018-06-30T06:03:02.014Z,13.00
2018-06-30T06:05:28.874Z,10.23
2018-06-30T06:07:55.758Z,13.40
2018-06-30T06:10:22.685Z,9.13
2018-06-30T06:12:49.557Z,9.18
2018-06-30T06:15:16.589Z,10.68
2018-06-30T06:17:43.598Z,8.65
2018-06-30T06:20:10.497Z,8.03
2018-06-30T06:22:37.281Z,6.78
2018-06-30T06:25:04.068Z,7.50
2018-06-30T06:27:30.979Z,8.10
2018-06-30T06:29:57.800Z,11.18
2018-06-30T06:32:24.562Z,6.58
2018-06-30T06:34:51.439Z,8.20
2018-06-30T06:37:18.246Z,10.20
2018-06-30T06:39:45.113Z,10.15
2018-06-30T06:42:11.903Z,9.20
2018-06-30T06:44:38.660Z,10.98
2018-06-30T06:47:05.625Z,10.08
2018-06-30T06:49:32.407Z,13.05
2018-06-30T06:51:59.215Z,8.70
2018-06-30T06:54:25.968Z,10.23
2018-06-30T06:56:52.841Z,11.68
2018-06-30T06:59:19.733Z,9.73
2018-06-30T07:01:46.495Z,9.73
2018-06-30T07:04:13.305Z,7.00
2018-06-30T07:06:40.179Z,9.95
2018-06-30T07:09:06.951Z,10.05
2018-06-30T07:11:33.800Z,9.20
2018-06-30T07:14:00.745Z,8.93
2018-06-30T07:16:27.635Z,8.80
2018-06-30T07:18:54.425Z,10.72
2018-06-30T07:21:21.223Z,11.73
2018-06-30T07:23:48.062Z,9.55
2018-06-30T07:26:14.953Z,10.25
2018-06-30T07:28:41.725Z,8.50
2018-06-30T07:31:08.517Z,8.70
2018-06-30T07:33:35.353Z,10.72
2018-06-30T07:36:02.234Z,9.58
2018-06-30T07:38:29.174Z,8.48
2018-06-30T07:40:56.181Z,7.78
2018-06-30T07:43:23.223Z,9.50
2018-06-30T07:45:50.209Z,9.95
2018-06-30T07:48:17.062Z,11.90
2018-06-30T07:50:43.839Z,9.65
2018-06-30T07:53:10.773Z,9.55
2018-06-30T07:55:37.808Z,8.90
2018-06-30T07:58:04.622Z,10.32
2018-06-30T08:00:31.557Z,11.65
2018-06-30T08:02:58.326Z,9.25
2018-06-30T08:05:25.124Z,7.00
2018-06-30T08:07:52.006Z,9.18
2018-06-30T08:10:18.818Z,8.00
2018-06-30T08:12:45.628Z,10.05
2018-06-30T08:15:12.421Z,8.25
2018-06-30T08:17:39.258Z,7.78
2018-06-30T08:20:06.211Z,14.55
2018-06-30T08:22:33.020Z,6.85
2018-06-30T08:24:59.868Z,10.45
2018-06-30T08:27:26.708Z,13.30
2018-06-30T08:29:53.480Z,11.40
2018-06-30T08:32:20.464Z,10.48
2018-06-30T08:34:47.384Z,10.70
2018-06-30T08:37:14.337Z,10.70
2018-06-30T08:39:41.306Z,9.83
2018-06-30T08:42:08.049Z,9.73
2018-06-30T08:44:34.859Z,8.10
2018-06-30T08:47:01.652Z,10.35
2018-06-30T08:49:28.446Z,9.18
2018-06-30T08:51:55.296Z,10.43
2018-06-30T08:54:22.117Z,10.45
2018-06-30T08:56:49.003Z,8.43
2018-06-30T08:59:15.836Z,7.95
2018-06-30T09:01:42.698Z,8.85
2018-06-30T09:04:09.566Z,14.28
2018-06-30T09:06:36.379Z,11.45
2018-06-30T09:09:03.516Z,8.93
2018-06-30T09:11:30.292Z,10.15
2018-06-30T09:13:57.137Z,11.45
2018-06-30T09:16:23.928Z,8.75
2018-06-30T09:18:50.659Z,10.25
2018-06-30T09:21:17.440Z,14.87
2018-06-30T09:23:44.271Z,18.05
2018-06-30T09:26:11.039Z,19.15
2018-06-30T09:28:37.854Z,15.08
2018-06-30T09:31:04.797Z,10.75
2018-06-30T09:33:31.794Z,13.58
2018-06-30T09:35:58.595Z,14.63
2018-06-30T09:38:25.326Z,14.33
2018-06-30T09:40:52.127Z,14.45
2018-06-30T09:43:18.947Z,13.38
2018-06-30T09:45:45.750Z,14.55
2018-06-30T09:48:12.569Z,11.80
2018-06-30T09:50:39.373Z,15.28
2018-06-30T09:53:06.089Z,13.98
2018-06-30T09:55:32.999Z,13.62
2018-06-30T09:57:59.814Z,15.38
2018-06-30T10:00:32.036Z,12.45
2018-06-30T10:02:58.809Z,13.75
2018-06-30T10:05:25.615Z,14.25
2018-06-30T10:07:52.441Z,12.73
2018-06-30T10:10:19.286Z,14.40
2018-06-30T10:12:46.112Z,12.43
2018-06-30T10:15:12.945Z,9.70
2018-06-30T10:17:39.789Z,14.45
2018-06-30T10:20:06.671Z,15.68
2018-06-30T10:22:33.472Z,11.75
2018-06-30T10:25:00.314Z,15.55
2018-06-30T10:27:27.298Z,16.67
2018-06-30T10:29:54.029Z,13.05
2018-06-30T10:32:20.813Z,11.45
2018-06-30T10:34:47.694Z,11.25
2018-06-30T10:37:14.518Z,9.85
2018-06-30T10:39:41.413Z,11.60
2018-06-30T10:42:08.380Z,12.20
2018-06-30T10:44:35.318Z,14.70
2018-06-30T10:47:02.155Z,14.85
2018-06-30T10:49:29.114Z,14.75
2018-06-30T10:51:55.899Z,12.98
2018-06-30T10:54:22.694Z,10.98
2018-06-30T10:56:49.480Z,12.88
2018-06-30T10:59:16.289Z,13.58
2018-06-30T11:01:43.120Z,11.50
2018-06-30T11:04:09.923Z,11.50
2018-06-30T11:06:36.788Z,15.53
2018-06-30T11:09:04.323Z,14.93
2018-06-30T11:11:31.133Z,13.50
2018-06-30T11:13:58.105Z,13.40
2018-06-30T11:16:25.050Z,13.72
2018-06-30T11:18:51.913Z,14.30
2018-06-30T11:21:18.789Z,11.60
2018-06-30T11:23:45.622Z,16.57
2018-06-30T11:26:12.463Z,16.48
2018-06-30T11:28:39.273Z,14.28
2018-06-30T11:31:06.099Z,17.40
2018-06-30T11:33:32.847Z,16.45
2018-06-30T11:35:59.562Z,16.05
2018-06-30T11:38:26.496Z,17.37
2018-06-30T11:40:53.503Z,15.63
2018-06-30T11:43:20.208Z,15.75
2018-06-30T11:45:47.066Z,12.50
2018-06-30T11:48:14.278Z,12.15
2018-06-30T11:50:41.318Z,15.55
2018-06-30T11:53:08.076Z,13.68
2018-06-30T11:55:34.850Z,15.60
2018-06-30T11:58:01.640Z,10.60
2018-06-30T12:00:28.570Z,14.83
2018-06-30T12:02:55.553Z,12.60
2018-06-30T12:05:22.584Z,13.55
2018-06-30T12:07:49.354Z,11.08
2018-06-30T12:10:16.305Z,16.95
2018-06-30T12:12:43.161Z,15.75
2018-06-30T12:15:09.923Z,14.10
2018-06-30T12:17:36.787Z,11.12
2018-06-30T12:20:03.734Z,13.85
2018-06-30T12:22:30.666Z,14.43
2018-06-30T12:24:57.571Z,16.90
2018-06-30T12:27:24.629Z,13.43
2018-06-30T12:29:51.519Z,13.83
2018-06-30T12:32:18.412Z,10.28
2018-06-30T12:34:45.222Z,12.33
2018-06-30T12:37:11.949Z,12.75
2018-06-30T12:39:38.724Z,14.63
2018-06-30T12:42:05.573Z,13.98
2018-06-30T12:44:32.356Z,12.80
2018-06-30T12:46:59.212Z,14.07
2018-06-30T12:49:26.106Z,15.88
2018-06-30T12:51:52.981Z,11.95
2018-06-30T12:54:19.883Z,16.82
2018-06-30T12:56:46.862Z,14.98
2018-06-30T12:59:13.658Z,10.38
2018-06-30T13:01:40.418Z,16.62
2018-06-30T13:04:07.366Z,13.80
2018-06-30T13:06:34.098Z,13.90
2018-06-30T13:09:00.854Z,11.88
2018-06-30T13:11:27.653Z,21.90
2018-06-30T13:13:54.525Z,16.62
2018-06-30T13:16:21.437Z,15.40
2018-06-30T13:18:48.379Z,11.10
2018-06-30T13:21:15.223Z,13.80
2018-06-30T13:23:42.079Z,10.55
2018-06-30T13:26:08.960Z,13.20
2018-06-30T13:28:35.765Z,12.10
2018-06-30T13:31:02.557Z,9.93
2018-06-30T13:33:29.452Z,9.68
2018-06-30T13:35:56.369Z,14.30
2018-06-30T13:38:23.296Z,10.08
2018-06-30T13:40:50.150Z,10.40
2018-06-30T13:43:17.123Z,11.20
2018-06-30T13:45:43.916Z,12.55
2018-06-30T13:48:10.746Z,9.43
2018-06-30T13:50:37.579Z,11.18
2018-06-30T13:53:04.398Z,12.43
2018-06-30T13:56:33.909Z,9.83
2018-06-30T13:59:00.726Z,10.05
2018-06-30T14:01:27.771Z,11.12
2018-06-30T14:03:54.560Z,14.47
2018-06-30T14:06:21.308Z,8.78
2018-06-30T14:08:48.040Z,11.22
2018-06-30T14:11:15.258Z,9.90
2018-06-30T14:13:42.247Z,18.00
2018-06-30T14:16:09.069Z,8.53
2018-06-30T14:18:35.894Z,7.90
2018-06-30T14:21:02.688Z,10.30
2018-06-30T14:23:29.540Z,8.45
2018-06-30T14:25:56.344Z,8.90
2018-06-30T14:28:23.429Z,9.80
2018-06-30T14:30:50.275Z,7.05
2018-06-30T14:33:17.109Z,8.03
2018-06-30T14:35:43.903Z,10.68
2018-06-30T14:38:10.703Z,9.20
2018-06-30T14:40:37.529Z,9.33
2018-06-30T14:43:04.340Z,6.67
2018-06-30T14:45:31.272Z,8.18
2018-06-30T14:47:58.079Z,7.28
2018-06-30T14:50:24.880Z,7.97
2018-06-30T14:52:51.799Z,5.65
2018-06-30T14:55:18.766Z,14.80
2018-06-30T14:57:45.559Z,5.15
2018-06-30T15:00:12.285Z,6.08
2018-06-30T15:02:39.559Z,9.33
2018-06-30T15:05:06.521Z,6.35
2018-06-30T15:07:33.488Z,9.33
2018-06-30T15:10:00.226Z,9.33
2018-06-30T15:12:27.206Z,8.60
2018-06-30T15:14:53.972Z,5.40
2018-06-30T15:17:20.894Z,6.40
2018-06-30T15:19:47.748Z,6.40
2018-06-30T15:22:14.719Z,7.33
2018-06-30T15:24:41.588Z,11.10
2018-06-30T15:27:08.334Z,6.40
2018-06-30T15:29:35.031Z,6.97
2018-06-30T15:32:01.877Z,6.10
2018-06-30T15:34:28.766Z,4.78
2018-06-30T15:36:55.649Z,7.17
2018-06-30T15:39:22.558Z,4.62
2018-06-30T15:41:49.324Z,8.45
2018-06-30T15:44:16.142Z,8.83
2018-06-30T15:46:42.960Z,5.78
2018-06-30T15:49:09.804Z,9.53
2018-06-30T15:51:36.686Z,5.85
2018-06-30T15:54:03.533Z,4.62
2018-06-30T15:56:30.202Z,7.67
2018-06-30T15:58:56.952Z,6.53
2018-06-30T16:01:23.796Z,9.25
2018-06-30T16:03:50.632Z,8.35
2018-06-30T16:06:17.499Z,5.97
2018-06-30T16:08:45.372Z,5.10
2018-06-30T16:11:12.164Z,8.80
2018-06-30T16:13:39.006Z,4.83
2018-06-30T16:16:05.890Z,4.42
2018-06-30T16:18:32.829Z,7.90
2018-06-30T16:20:59.606Z,5.97
2018-06-30T16:23:26.444Z,6.30
2018-06-30T16:25:53.444Z,9.60
2018-06-30T16:28:20.402Z,7.75
2018-06-30T16:30:47.194Z,5.58
2018-06-30T16:33:13.929Z,7.70
2018-06-30T16:35:40.747Z,5.83
2018-06-30T16:38:07.623Z,5.17
2018-06-30T16:40:34.768Z,5.05
2018-06-30T16:43:01.560Z,5.85
2018-06-30T16:45:28.564Z,4.90
2018-06-30T16:47:55.414Z,6.50
2018-06-30T16:50:22.177Z,5.47
2018-06-30T16:52:48.970Z,6.55
2018-06-30T16:55:15.812Z,7.00
2018-06-30T16:57:42.627Z,7.65
2018-06-30T17:00:09.781Z,4.62
2018-06-30T17:02:36.738Z,5.72
2018-06-30T17:05:03.664Z,6.03
2018-06-30T17:07:30.495Z,5.75
2018-06-30T17:09:57.322Z,6.20
2018-06-30T17:12:24.200Z,4.97
2018-06-30T17:14:51.064Z,3.77
2018-06-30T17:17:17.883Z,3.87
2018-06-30T17:19:44.658Z,6.35
2018-06-30T17:22:11.420Z,7.80
2018-06-30T17:24:38.193Z,5.60
2018-06-30T17:27:05.040Z,3.92
2018-06-30T17:29:31.862Z,4.12
2018-06-30T17:31:58.656Z,4.87
2018-06-30T17:34:25.504Z,4.67
2018-06-30T17:36:52.448Z,7.83
2018-06-30T17:39:19.233Z,3.55
2018-06-30T17:41:45.920Z,6.45
2018-06-30T17:44:12.731Z,7.87
2018-06-30T17:46:39.677Z,5.17
2018-06-30T17:49:06.740Z,4.37
2018-06-30T17:51:33.538Z,3.95
2018-06-30T17:54:00.294Z,5.60
2018-06-30T17:56:27.098Z,4.60
2018-06-30T17:58:53.837Z,3.00
2018-06-30T18:01:20.632Z,4.00
2018-06-30T18:03:47.364Z,3.33
2018-06-30T18:06:14.260Z,3.90
2018-06-30T18:08:41.053Z,3.50
2018-06-30T18:11:07.833Z,3.25
2018-06-30T18:13:34.681Z,4.42
2018-06-30T18:16:01.624Z,5.95
2018-06-30T18:18:28.371Z,4.45
2018-06-30T18:20:55.203Z,4.92
2018-06-30T18:23:22.067Z,3.83
2018-06-30T18:25:48.887Z,4.25
2018-06-30T18:28:15.653Z,3.75
2018-06-30T18:30:42.396Z,7.22
2018-06-30T18:33:09.105Z,3.98
2018-06-30T18:35:35.985Z,5.40
2018-06-30T18:38:03.220Z,4.40
2018-06-30T18:40:30.058Z,5.17
2018-06-30T18:42:56.757Z,4.67
2018-06-30T18:45:23.453Z,4.42
2018-06-30T19:24:21.217Z,6.95
2018-06-30T19:26:48.281Z,3.08
2018-06-30T19:29:15.292Z,3.80
2018-06-30T19:31:43.119Z,3.87
2018-06-30T19:34:09.910Z,3.37
2018-06-30T19:36:36.876Z,3.75
2018-06-30T19:39:04.012Z,5.33
2018-06-30T19:41:37.463Z,14.38
2018-06-30T19:50:36.945Z,5.40
2018-06-30T19:53:03.710Z,4.00
2018-06-30T19:55:31.213Z,5.12
2018-06-30T19:57:58.005Z,2.42
2018-06-30T20:00:26.271Z,4.67
2018-06-30T20:02:54.177Z,4.45
2018-06-30T20:05:21.213Z,2.05
2018-06-30T20:07:53.656Z,5.50
2018-06-30T20:10:21.064Z,2.05
2018-06-30T20:12:47.960Z,2.25
2018-06-30T20:15:14.859Z,3.35
2018-06-30T20:17:41.679Z,2.72
2018-06-30T20:20:09.003Z,2.37
2018-06-30T20:22:35.899Z,2.58
2018-06-30T20:25:02.746Z,2.05
2018-06-30T20:27:29.667Z,3.62
2018-06-30T20:29:56.695Z,1.77
2018-06-30T20:32:23.578Z,1.62
2018-06-30T20:34:50.809Z,2.25
2018-06-30T20:37:17.567Z,1.72
2018-06-30T20:39:45.109Z,2.35
2018-06-30T20:42:12.435Z,1.72
2018-06-30T20:44:39.309Z,1.67
2018-06-30T20:47:06.098Z,2.33
2018-06-30T20:49:33.165Z,4.20
2018-06-30T20:52:00.018Z,2.35
2018-06-30T20:54:26.791Z,1.90
2018-06-30T20:56:53.617Z,4.45
2018-06-30T20:59:20.577Z,1.40
2018-06-30T21:01:47.533Z,1.75
2018-06-30T21:04:14.296Z,1.50
2018-06-30T21:06:41.247Z,2.15
2018-06-30T21:09:09.327Z,1.95
2018-06-30T21:11:36.279Z,1.98
2018-06-30T21:14:03.133Z,1.50
2018-06-30T21:16:30.045Z,2.02
2018-06-30T21:18:57.337Z,4.72
2018-06-30T21:21:24.144Z,1.20
2018-06-30T21:23:50.934Z,1.75
2018-06-30T21:26:17.906Z,1.85
2018-06-30T21:28:45.248Z,2.25
2018-06-30T21:31:11.968Z,1.50
2018-06-30T21:33:38.696Z,1.10
2018-06-30T21:36:05.441Z,1.75
2018-06-30T21:38:32.189Z,1.00
2018-06-30T21:40:58.909Z,1.47
2018-06-30T21:43:25.709Z,1.50
2018-06-30T21:45:52.457Z,1.20
2018-06-30T21:48:19.228Z,1.17
2018-06-30T21:50:46.170Z,1.40
2018-06-30T21:53:13.035Z,2.15
2018-06-30T21:55:40.688Z,1.82
2018-06-30T21:58:07.448Z,1.17
2018-06-30T22:01:41.724Z,1.00
2018-06-30T22:04:09.027Z,1.10
2018-06-30T22:06:35.848Z,1.20
2018-06-30T22:09:02.799Z,1.85
2018-06-30T22:11:29.736Z,1.95
2018-06-30T22:13:56.587Z,1.52
2018-06-30T22:16:23.457Z,0.98
2018-06-30T22:18:50.303Z,0.80
2018-06-30T22:21:17.133Z,1.75
2018-06-30T22:23:44.068Z,1.57
2018-06-30T22:26:10.952Z,0.90
2018-06-30T22:28:37.683Z,0.85
2018-06-30T22:31:04.758Z,1.40
2018-06-30T22:33:31.611Z,0.90
2018-06-30T22:35:58.423Z,1.77
2018-06-30T22:38:25.239Z,0.82
2018-06-30T22:40:52.031Z,1.20
2018-06-30T22:43:19.041Z,0.75
2018-06-30T22:45:45.868Z,1.00
2018-06-30T22:48:12.744Z,2.22
2018-06-30T22:50:40.007Z,1.00
2018-06-30T22:53:07.423Z,0.98
2018-06-30T22:55:34.193Z,1.12
2018-06-30T22:58:00.964Z,0.80
2018-06-30T23:00:27.834Z,1.17
2018-06-30T23:02:54.537Z,4.12
2018-06-30T23:05:22.067Z,1.02
2018-06-30T23:07:48.944Z,0.90
2018-06-30T23:10:15.942Z,1.30
2018-06-30T23:12:43.539Z,0.75
2018-06-30T23:15:10.806Z,2.15
2018-06-30T23:17:37.572Z,1.12
2018-06-30T23:20:04.453Z,1.50
2018-06-30T23:22:31.468Z,1.85
2018-06-30T23:24:58.769Z,0.60
2018-06-30T23:27:25.644Z,1.00
2018-06-30T23:29:55.208Z,3.00
2018-06-30T23:32:25.044Z,0.80
2018-06-30T23:34:52.183Z,1.10
2018-06-30T23:37:19.482Z,0.93
2018-06-30T23:39:46.288Z,0.90
2018-06-30T23:42:13.643Z,0.70
2018-06-30T23:44:40.535Z,0.95
2018-06-30T23:47:07.265Z,0.90
2018-06-30T23:49:34.037Z,2.20
2018-06-30T23:52:00.975Z,0.95
2018-06-30T23:54:27.837Z,1.98
2018-06-30T23:56:54.681Z,0.60
2018-06-30T23:59:21.421Z,2.87
